Terminal Aerodrome Forecast
Issued by NWS

Home | Current Version | Previous Version | Text Only | Print | Product List | Glossary On
Versions: 1 2 3 4 5 6 7 8 9 10 11 12 13 14 15 16
000
FTUS46 KLOX 260000 AAB
TAFSBA
TAF AMD
KSBA 260017Z 2600/2624 27008KT P6SM SKC
     FM260600 31008KT P6SM SKC
     FM260900 VRB03KT P6SM SKC
     FM261700 15007KT P6SM SKC
     FM262300 25010KT P6SM SKC WS015/33025KT=

USA.gov is the U.S. government's official web portal to all federal, state and local government web resources and services.